sensor_id;sensor_type;location;lat;lon;timestamp;P1;durP1;ratioP1;P2;durP2;ratioP2
30681;SDS011;17439;48.092;11.842;2022-12-18T00:01:34;44.65;;;12.63;;
30681;SDS011;17439;48.092;11.842;2022-12-18T00:04:03;41.25;;;14.68;;
30681;SDS011;17439;48.092;11.842;2022-12-18T00:06:31;40.28;;;14.65;;
30681;SDS011;17439;48.092;11.842;2022-12-18T00:08:59;36.42;;;12.00;;
30681;SDS011;17439;48.092;11.842;2022-12-18T00:13:54;44.80;;;12.48;;
30681;SDS011;17439;48.092;11.842;2022-12-18T00:16:23;37.53;;;12.93;;
30681;SDS011;17439;48.092;11.842;2022-12-18T00:18:52;32.08;;;11.20;;
30681;SDS011;17439;48.092;11.842;2022-12-18T00:21:20;34.88;;;11.35;;
30681;SDS011;17439;48.092;11.842;2022-12-18T00:23:47;48.20;;;16.27;;
30681;SDS011;17439;48.092;11.842;2022-12-18T00:28:43;38.83;;;13.48;;
30681;SDS011;17439;48.092;11.842;2022-12-18T00:31:11;49.15;;;16.38;;
30681;SDS011;17439;48.092;11.842;2022-12-18T00:33:43;44.63;;;17.55;;
30681;SDS011;17439;48.092;11.842;2022-12-18T00:36:11;43.55;;;14.00;;
30681;SDS011;17439;48.092;11.842;2022-12-18T00:38:40;42.13;;;13.18;;
30681;SDS011;17439;48.092;11.842;2022-12-18T00:41:09;48.47;;;16.52;;
30681;SDS011;17439;48.092;11.842;2022-12-18T00:43:36;48.13;;;16.80;;
30681;SDS011;17439;48.092;11.842;2022-12-18T00:46:05;51.20;;;17.90;;
30681;SDS011;17439;48.092;11.842;2022-12-18T00:48:32;53.93;;;16.93;;
30681;SDS011;17439;48.092;11.842;2022-12-18T00:50:58;51.08;;;17.30;;
30681;SDS011;17439;48.092;11.842;2022-12-18T00:53:25;41.65;;;13.48;;
30681;SDS011;17439;48.092;11.842;2022-12-18T00:55:52;44.45;;;14.40;;
30681;SDS011;17439;48.092;11.842;2022-12-18T00:58:18;40.55;;;14.30;;
30681;SDS011;17439;48.092;11.842;2022-12-18T01:00:45;47.65;;;15.45;;
30681;SDS011;17439;48.092;11.842;2022-12-18T01:03:14;46.10;;;15.95;;
30681;SDS011;17439;48.092;11.842;2022-12-18T01:05:42;56.10;;;16.77;;
30681;SDS011;17439;48.092;11.842;2022-12-18T01:08:10;46.28;;;15.75;;
30681;SDS011;17439;48.092;11.842;2022-12-18T01:10:39;52.85;;;15.82;;
30681;SDS011;17439;48.092;11.842;2022-12-18T01:13:07;52.72;;;17.88;;
30681;SDS011;17439;48.092;11.842;2022-12-18T01:15:34;55.30;;;18.67;;
30681;SDS011;17439;48.092;11.842;2022-12-18T01:18:01;43.92;;;14.95;;
30681;SDS011;17439;48.092;11.842;2022-12-18T01:20:27;40.90;;;15.45;;
30681;SDS011;17439;48.092;11.842;2022-12-18T01:22:54;40.10;;;13.55;;
30681;SDS011;17439;48.092;11.842;2022-12-18T01:25:20;45.08;;;15.02;;
30681;SDS011;17439;48.092;11.842;2022-12-18T01:27:49;59.33;;;17.90;;
30681;SDS011;17439;48.092;11.842;2022-12-18T01:30:16;50.85;;;15.85;;
30681;SDS011;17439;48.092;11.842;2022-12-18T01:32:44;51.13;;;16.05;;
30681;SDS011;17439;48.092;11.842;2022-12-18T01:35:10;41.83;;;15.40;;
30681;SDS011;17439;48.092;11.842;2022-12-18T01:37:37;52.42;;;17.85;;
30681;SDS011;17439;48.092;11.842;2022-12-18T01:40:04;49.10;;;17.17;;
30681;SDS011;17439;48.092;11.842;2022-12-18T01:42:31;44.75;;;14.73;;
30681;SDS011;17439;48.092;11.842;2022-12-18T01:45:05;43.67;;;18.00;;
30681;SDS011;17439;48.092;11.842;2022-12-18T01:47:47;46.40;;;15.07;;
30681;SDS011;17439;48.092;11.842;2022-12-18T01:50:21;44.25;;;16.52;;
30681;SDS011;17439;48.092;11.842;2022-12-18T01:52:56;42.78;;;14.85;;
30681;SDS011;17439;48.092;11.842;2022-12-18T01:55:26;41.10;;;13.93;;
30681;SDS011;17439;48.092;11.842;2022-12-18T01:57:57;40.28;;;14.88;;
30681;SDS011;17439;48.092;11.842;2022-12-18T02:00:25;50.40;;;17.67;;
30681;SDS011;17439;48.092;11.842;2022-12-18T02:02:53;41.15;;;16.77;;
30681;SDS011;17439;48.092;11.842;2022-12-18T02:05:23;45.25;;;16.70;;
30681;SDS011;17439;48.092;11.842;2022-12-18T02:08:18;35.92;;;13.40;;
30681;SDS011;17439;48.092;11.842;2022-12-18T02:13:46;45.22;;;16.95;;
30681;SDS011;17439;48.092;11.842;2022-12-18T02:22:14;43.45;;;14.65;;
30681;SDS011;17439;48.092;11.842;2022-12-18T02:24:57;41.67;;;13.95;;
30681;SDS011;17439;48.092;11.842;2022-12-18T02:27:31;50.28;;;16.90;;
30681;SDS011;17439;48.092;11.842;2022-12-18T02:30:00;59.75;;;19.48;;
30681;SDS011;17439;48.092;11.842;2022-12-18T02:32:29;52.17;;;18.50;;
30681;SDS011;17439;48.092;11.842;2022-12-18T02:35:00;46.78;;;15.73;;
30681;SDS011;17439;48.092;11.842;2022-12-18T02:37:29;51.25;;;15.70;;
30681;SDS011;17439;48.092;11.842;2022-12-18T02:39:59;43.20;;;15.45;;
30681;SDS011;17439;48.092;11.842;2022-12-18T02:42:31;46.70;;;16.08;;
30681;SDS011;17439;48.092;11.842;2022-12-18T02:45:00;38.65;;;15.02;;
30681;SDS011;17439;48.092;11.842;2022-12-18T02:47:29;41.22;;;13.55;;
30681;SDS011;17439;48.092;11.842;2022-12-18T02:52:55;40.67;;;13.30;;
30681;SDS011;17439;48.092;11.842;2022-12-18T02:55:38;38.78;;;14.30;;
30681;SDS011;17439;48.092;11.842;2022-12-18T03:01:38;39.75;;;14.10;;
30681;SDS011;17439;48.092;11.842;2022-12-18T03:04:26;40.30;;;14.30;;
30681;SDS011;17439;48.092;11.842;2022-12-18T03:06:58;43.45;;;16.90;;
30681;SDS011;17439;48.092;11.842;2022-12-18T03:09:34;47.95;;;16.27;;
30681;SDS011;17439;48.092;11.842;2022-12-18T03:12:07;43.40;;;14.60;;
30681;SDS011;17439;48.092;11.842;2022-12-18T03:14:59;35.22;;;12.75;;
30681;SDS011;17439;48.092;11.842;2022-12-18T03:17:31;44.35;;;15.48;;
30681;SDS011;17439;48.092;11.842;2022-12-18T03:20:04;43.08;;;12.45;;
30681;SDS011;17439;48.092;11.842;2022-12-18T03:22:35;39.78;;;13.05;;
30681;SDS011;17439;48.092;11.842;2022-12-18T03:25:06;34.05;;;13.98;;
30681;SDS011;17439;48.092;11.842;2022-12-18T03:27:37;32.85;;;13.38;;
30681;SDS011;17439;48.092;11.842;2022-12-18T03:30:11;39.92;;;14.10;;
30681;SDS011;17439;48.092;11.842;2022-12-18T03:32:41;40.60;;;14.55;;
30681;SDS011;17439;48.092;11.842;2022-12-18T03:35:18;44.75;;;13.85;;
30681;SDS011;17439;48.092;11.842;2022-12-18T03:37:49;45.00;;;13.48;;
30681;SDS011;17439;48.092;11.842;2022-12-18T03:40:17;34.80;;;12.25;;
30681;SDS011;17439;48.092;11.842;2022-12-18T03:42:46;42.70;;;15.15;;
30681;SDS011;17439;48.092;11.842;2022-12-18T03:50:46;40.33;;;14.27;;
30681;SDS011;17439;48.092;11.842;2022-12-18T03:53:38;47.65;;;14.65;;
30681;SDS011;17439;48.092;11.842;2022-12-18T03:56:11;41.95;;;14.40;;
30681;SDS011;17439;48.092;11.842;2022-12-18T03:58:42;40.35;;;13.93;;
30681;SDS011;17439;48.092;11.842;2022-12-18T04:01:16;51.00;;;17.40;;
30681;SDS011;17439;48.092;11.842;2022-12-18T04:03:46;36.45;;;14.02;;
30681;SDS011;17439;48.092;11.842;2022-12-18T04:06:18;39.88;;;13.80;;
30681;SDS011;17439;48.092;11.842;2022-12-18T04:08:45;40.17;;;12.75;;
30681;SDS011;17439;48.092;11.842;2022-12-18T04:11:16;53.25;;;16.27;;
30681;SDS011;17439;48.092;11.842;2022-12-18T04:13:44;48.22;;;14.95;;
30681;SDS011;17439;48.092;11.842;2022-12-18T04:16:20;36.88;;;13.25;;
30681;SDS011;17439;48.092;11.842;2022-12-18T04:18:50;38.70;;;13.63;;
30681;SDS011;17439;48.092;11.842;2022-12-18T04:21:18;56.00;;;17.27;;
30681;SDS011;17439;48.092;11.842;2022-12-18T04:23:47;42.45;;;14.13;;
30681;SDS011;17439;48.092;11.842;2022-12-18T04:26:13;44.13;;;13.20;;
30681;SDS011;17439;48.092;11.842;2022-12-18T04:28:59;32.90;;;12.05;;
30681;SDS011;17439;48.092;11.842;2022-12-18T04:31:26;39.10;;;14.13;;
30681;SDS011;17439;48.092;11.842;2022-12-18T04:33:55;34.58;;;13.25;;
30681;SDS011;17439;48.092;11.842;2022-12-18T04:36:22;42.30;;;15.05;;
30681;SDS011;17439;48.092;11.842;2022-12-18T04:38:49;42.83;;;13.55;;
30681;SDS011;17439;48.092;11.842;2022-12-18T04:41:16;44.08;;;13.10;;
30681;SDS011;17439;48.092;11.842;2022-12-18T04:43:45;37.83;;;11.90;;
30681;SDS011;17439;48.092;11.842;2022-12-18T04:46:12;35.08;;;12.70;;
30681;SDS011;17439;48.092;11.842;2022-12-18T04:48:39;34.35;;;13.90;;
30681;SDS011;17439;48.092;11.842;2022-12-18T04:51:07;39.40;;;14.17;;
30681;SDS011;17439;48.092;11.842;2022-12-18T04:53:34;52.00;;;13.93;;
30681;SDS011;17439;48.092;11.842;2022-12-18T04:58:35;46.42;;;13.90;;
30681;SDS011;17439;48.092;11.842;2022-12-18T05:03:30;38.57;;;14.37;;
30681;SDS011;17439;48.092;11.842;2022-12-18T05:05:59;36.72;;;13.02;;
30681;SDS011;17439;48.092;11.842;2022-12-18T05:08:26;38.17;;;13.43;;
30681;SDS011;17439;48.092;11.842;2022-12-18T05:13:26;48.03;;;16.13;;
30681;SDS011;17439;48.092;11.842;2022-12-18T05:15:53;40.03;;;13.60;;
30681;SDS011;17439;48.092;11.842;2022-12-18T05:18:21;38.78;;;12.38;;
30681;SDS011;17439;48.092;11.842;2022-12-18T05:20:50;35.50;;;12.57;;
30681;SDS011;17439;48.092;11.842;2022-12-18T05:23:18;41.83;;;13.23;;
30681;SDS011;17439;48.092;11.842;2022-12-18T05:28:20;35.20;;;11.95;;
30681;SDS011;17439;48.092;11.842;2022-12-18T05:33:21;30.48;;;10.13;;
30681;SDS011;17439;48.092;11.842;2022-12-18T05:35:55;41.63;;;13.07;;
30681;SDS011;17439;48.092;11.842;2022-12-18T05:38:26;36.20;;;12.85;;
30681;SDS011;17439;48.092;11.842;2022-12-18T05:40:54;33.03;;;11.38;;
30681;SDS011;17439;48.092;11.842;2022-12-18T05:43:22;37.40;;;12.30;;
30681;SDS011;17439;48.092;11.842;2022-12-18T05:45:49;39.03;;;13.70;;
30681;SDS011;17439;48.092;11.842;2022-12-18T05:48:16;36.57;;;13.30;;
30681;SDS011;17439;48.092;11.842;2022-12-18T05:50:44;35.20;;;12.50;;
30681;SDS011;17439;48.092;11.842;2022-12-18T05:53:12;38.38;;;11.40;;
30681;SDS011;17439;48.092;11.842;2022-12-18T05:55:40;30.90;;;11.15;;
30681;SDS011;17439;48.092;11.842;2022-12-18T06:00:36;30.10;;;9.55;;
30681;SDS011;17439;48.092;11.842;2022-12-18T06:03:04;37.58;;;11.98;;
30681;SDS011;17439;48.092;11.842;2022-12-18T06:05:34;36.10;;;13.20;;
30681;SDS011;17439;48.092;11.842;2022-12-18T06:08:05;38.92;;;10.85;;
30681;SDS011;17439;48.092;11.842;2022-12-18T06:10:31;36.67;;;13.63;;
30681;SDS011;17439;48.092;11.842;2022-12-18T06:12:58;41.05;;;12.38;;
30681;SDS011;17439;48.092;11.842;2022-12-18T06:15:25;31.40;;;11.98;;
30681;SDS011;17439;48.092;11.842;2022-12-18T06:17:51;26.77;;;8.95;;
30681;SDS011;17439;48.092;11.842;2022-12-18T06:20:18;35.25;;;12.20;;
30681;SDS011;17439;48.092;11.842;2022-12-18T06:22:45;35.80;;;11.00;;
30681;SDS011;17439;48.092;11.842;2022-12-18T06:25:11;38.40;;;13.43;;
30681;SDS011;17439;48.092;11.842;2022-12-18T06:27:38;39.90;;;13.35;;
30681;SDS011;17439;48.092;11.842;2022-12-18T06:30:05;30.63;;;12.63;;
30681;SDS011;17439;48.092;11.842;2022-12-18T06:32:32;32.50;;;10.88;;
30681;SDS011;17439;48.092;11.842;2022-12-18T06:34:58;38.75;;;13.05;;
30681;SDS011;17439;48.092;11.842;2022-12-18T06:37:25;34.08;;;11.90;;
30681;SDS011;17439;48.092;11.842;2022-12-18T06:39:52;39.38;;;13.27;;
30681;SDS011;17439;48.092;11.842;2022-12-18T06:42:19;30.98;;;10.30;;
30681;SDS011;17439;48.092;11.842;2022-12-18T06:44:46;31.90;;;11.32;;
30681;SDS011;17439;48.092;11.842;2022-12-18T06:47:12;31.25;;;11.82;;
30681;SDS011;17439;48.092;11.842;2022-12-18T06:49:39;36.00;;;11.38;;
30681;SDS011;17439;48.092;11.842;2022-12-18T06:52:05;35.20;;;12.57;;
30681;SDS011;17439;48.092;11.842;2022-12-18T06:54:32;34.63;;;12.75;;
30681;SDS011;17439;48.092;11.842;2022-12-18T06:56:58;33.70;;;11.65;;
30681;SDS011;17439;48.092;11.842;2022-12-18T06:59:25;28.75;;;10.98;;
30681;SDS011;17439;48.092;11.842;2022-12-18T07:01:53;35.38;;;14.20;;
30681;SDS011;17439;48.092;11.842;2022-12-18T07:04:20;33.90;;;11.63;;
30681;SDS011;17439;48.092;11.842;2022-12-18T07:06:49;35.88;;;11.18;;
30681;SDS011;17439;48.092;11.842;2022-12-18T07:09:16;30.95;;;11.48;;
30681;SDS011;17439;48.092;11.842;2022-12-18T07:11:42;35.35;;;12.93;;
30681;SDS011;17439;48.092;11.842;2022-12-18T07:14:09;33.42;;;11.80;;
30681;SDS011;17439;48.092;11.842;2022-12-18T07:16:35;24.17;;;10.95;;
30681;SDS011;17439;48.092;11.842;2022-12-18T07:19:02;26.50;;;9.73;;
30681;SDS011;17439;48.092;11.842;2022-12-18T07:21:28;33.75;;;10.98;;
30681;SDS011;17439;48.092;11.842;2022-12-18T07:23:55;47.72;;;14.10;;
30681;SDS011;17439;48.092;11.842;2022-12-18T07:26:22;37.77;;;13.17;;
30681;SDS011;17439;48.092;11.842;2022-12-18T07:28:49;31.10;;;11.82;;
30681;SDS011;17439;48.092;11.842;2022-12-18T07:31:17;32.10;;;10.75;;
30681;SDS011;17439;48.092;11.842;2022-12-18T07:33:47;35.65;;;11.75;;
30681;SDS011;17439;48.092;11.842;2022-12-18T07:36:14;31.50;;;11.75;;
30681;SDS011;17439;48.092;11.842;2022-12-18T07:38:41;33.13;;;12.07;;
30681;SDS011;17439;48.092;11.842;2022-12-18T07:41:11;35.42;;;12.20;;
30681;SDS011;17439;48.092;11.842;2022-12-18T07:43:39;33.42;;;11.27;;
30681;SDS011;17439;48.092;11.842;2022-12-18T07:46:07;38.55;;;12.90;;
30681;SDS011;17439;48.092;11.842;2022-12-18T07:48:35;29.27;;;9.82;;
30681;SDS011;17439;48.092;11.842;2022-12-18T07:51:02;32.22;;;10.98;;
30681;SDS011;17439;48.092;11.842;2022-12-18T07:53:31;37.88;;;12.88;;
30681;SDS011;17439;48.092;11.842;2022-12-18T07:55:59;31.67;;;10.80;;
30681;SDS011;17439;48.092;11.842;2022-12-18T07:58:47;40.20;;;14.07;;
30681;SDS011;17439;48.092;11.842;2022-12-18T08:01:14;32.38;;;11.38;;
30681;SDS011;17439;48.092;11.842;2022-12-18T08:03:41;37.38;;;11.85;;
30681;SDS011;17439;48.092;11.842;2022-12-18T08:06:08;31.92;;;11.75;;
30681;SDS011;17439;48.092;11.842;2022-12-18T08:08:35;36.92;;;13.95;;
30681;SDS011;17439;48.092;11.842;2022-12-18T08:11:02;35.00;;;10.77;;
30681;SDS011;17439;48.092;11.842;2022-12-18T08:13:32;29.20;;;10.32;;
30681;SDS011;17439;48.092;11.842;2022-12-18T08:16:05;25.83;;;9.38;;
30681;SDS011;17439;48.092;11.842;2022-12-18T08:18:33;30.35;;;10.70;;
30681;SDS011;17439;48.092;11.842;2022-12-18T08:21:11;31.67;;;9.63;;
30681;SDS011;17439;48.092;11.842;2022-12-18T08:23:39;36.33;;;10.95;;
30681;SDS011;17439;48.092;11.842;2022-12-18T08:26:08;30.05;;;10.90;;
30681;SDS011;17439;48.092;11.842;2022-12-18T08:28:36;27.30;;;11.85;;
30681;SDS011;17439;48.092;11.842;2022-12-18T08:31:03;29.05;;;11.88;;
30681;SDS011;17439;48.092;11.842;2022-12-18T08:33:30;28.33;;;12.55;;
30681;SDS011;17439;48.092;11.842;2022-12-18T08:36:00;32.55;;;12.00;;
30681;SDS011;17439;48.092;11.842;2022-12-18T08:38:27;32.45;;;11.43;;
30681;SDS011;17439;48.092;11.842;2022-12-18T08:41:01;27.20;;;9.65;;
30681;SDS011;17439;48.092;11.842;2022-12-18T08:43:29;32.83;;;11.23;;
30681;SDS011;17439;48.092;11.842;2022-12-18T08:45:56;27.92;;;10.65;;
30681;SDS011;17439;48.092;11.842;2022-12-18T08:48:23;28.30;;;9.33;;
30681;SDS011;17439;48.092;11.842;2022-12-18T08:50:55;35.05;;;10.82;;
30681;SDS011;17439;48.092;11.842;2022-12-18T08:53:25;33.38;;;10.95;;
30681;SDS011;17439;48.092;11.842;2022-12-18T08:56:01;30.17;;;9.25;;
30681;SDS011;17439;48.092;11.842;2022-12-18T08:58:29;26.40;;;9.45;;
30681;SDS011;17439;48.092;11.842;2022-12-18T09:01:05;27.33;;;11.27;;
30681;SDS011;17439;48.092;11.842;2022-12-18T09:03:34;29.45;;;10.52;;
30681;SDS011;17439;48.092;11.842;2022-12-18T09:06:01;22.77;;;9.30;;
30681;SDS011;17439;48.092;11.842;2022-12-18T09:08:28;30.48;;;10.73;;
30681;SDS011;17439;48.092;11.842;2022-12-18T09:10:55;31.55;;;9.68;;
30681;SDS011;17439;48.092;11.842;2022-12-18T09:13:22;29.83;;;11.07;;
30681;SDS011;17439;48.092;11.842;2022-12-18T09:15:49;27.48;;;9.18;;
30681;SDS011;17439;48.092;11.842;2022-12-18T09:18:18;23.58;;;8.73;;
30681;SDS011;17439;48.092;11.842;2022-12-18T09:20:46;29.48;;;10.48;;
30681;SDS011;17439;48.092;11.842;2022-12-18T09:23:13;25.83;;;10.00;;
30681;SDS011;17439;48.092;11.842;2022-12-18T09:25:39;26.42;;;10.20;;
30681;SDS011;17439;48.092;11.842;2022-12-18T09:28:09;28.75;;;11.77;;
30681;SDS011;17439;48.092;11.842;2022-12-18T09:30:38;31.95;;;11.07;;
30681;SDS011;17439;48.092;11.842;2022-12-18T09:33:06;23.98;;;8.18;;
30681;SDS011;17439;48.092;11.842;2022-12-18T09:35:35;29.67;;;10.63;;
30681;SDS011;17439;48.092;11.842;2022-12-18T09:38:07;31.55;;;12.13;;
30681;SDS011;17439;48.092;11.842;2022-12-18T09:40:36;33.35;;;10.90;;
30681;SDS011;17439;48.092;11.842;2022-12-18T09:43:09;23.30;;;9.57;;
30681;SDS011;17439;48.092;11.842;2022-12-18T09:45:42;29.60;;;11.75;;
30681;SDS011;17439;48.092;11.842;2022-12-18T09:48:22;26.30;;;9.90;;
30681;SDS011;17439;48.092;11.842;2022-12-18T09:50:53;32.00;;;10.43;;
30681;SDS011;17439;48.092;11.842;2022-12-18T09:53:26;27.42;;;10.35;;
30681;SDS011;17439;48.092;11.842;2022-12-18T09:55:56;26.92;;;10.35;;
30681;SDS011;17439;48.092;11.842;2022-12-18T09:58:28;26.10;;;9.95;;
30681;SDS011;17439;48.092;11.842;2022-12-18T10:01:01;27.30;;;8.60;;
30681;SDS011;17439;48.092;11.842;2022-12-18T10:03:27;25.98;;;9.70;;
30681;SDS011;17439;48.092;11.842;2022-12-18T10:05:58;27.45;;;10.35;;
30681;SDS011;17439;48.092;11.842;2022-12-18T10:08:35;22.33;;;9.18;;
30681;SDS011;17439;48.092;11.842;2022-12-18T10:22:43;33.10;;;11.00;;
30681;SDS011;17439;48.092;11.842;2022-12-18T10:25:26;29.45;;;11.07;;
30681;SDS011;17439;48.092;11.842;2022-12-18T10:28:00;32.13;;;11.02;;
30681;SDS011;17439;48.092;11.842;2022-12-18T10:30:36;26.15;;;9.98;;
30681;SDS011;17439;48.092;11.842;2022-12-18T10:33:05;28.48;;;10.93;;
30681;SDS011;17439;48.092;11.842;2022-12-18T10:35:35;24.88;;;9.68;;
30681;SDS011;17439;48.092;11.842;2022-12-18T10:40:32;31.98;;;12.20;;
30681;SDS011;17439;48.092;11.842;2022-12-18T10:43:13;33.58;;;10.88;;
30681;SDS011;17439;48.092;11.842;2022-12-18T10:45:41;27.90;;;9.77;;
30681;SDS011;17439;48.092;11.842;2022-12-18T10:48:19;33.00;;;11.90;;
30681;SDS011;17439;48.092;11.842;2022-12-18T10:50:48;27.48;;;10.40;;
30681;SDS011;17439;48.092;11.842;2022-12-18T10:53:36;24.27;;;8.02;;
30681;SDS011;17439;48.092;11.842;2022-12-18T10:56:04;31.60;;;11.02;;
30681;SDS011;17439;48.092;11.842;2022-12-18T10:58:36;31.10;;;10.65;;
30681;SDS011;17439;48.092;11.842;2022-12-18T11:01:14;26.27;;;9.70;;
30681;SDS011;17439;48.092;11.842;2022-12-18T11:06:27;26.77;;;10.30;;
30681;SDS011;17439;48.092;11.842;2022-12-18T11:09:02;29.42;;;9.55;;
30681;SDS011;17439;48.092;11.842;2022-12-18T11:11:48;30.35;;;11.70;;
30681;SDS011;17439;48.092;11.842;2022-12-18T11:14:23;27.42;;;10.95;;
30681;SDS011;17439;48.092;11.842;2022-12-18T11:16:52;26.67;;;10.63;;
30681;SDS011;17439;48.092;11.842;2022-12-18T11:19:40;27.55;;;9.65;;
30681;SDS011;17439;48.092;11.842;2022-12-18T11:22:21;28.17;;;10.27;;
30681;SDS011;17439;48.092;11.842;2022-12-18T11:28:00;21.92;;;8.88;;
30681;SDS011;17439;48.092;11.842;2022-12-18T11:30:35;20.33;;;7.70;;
30681;SDS011;17439;48.092;11.842;2022-12-18T11:38:50;31.42;;;11.13;;
30681;SDS011;17439;48.092;11.842;2022-12-18T11:41:00;35.70;;;11.90;;
30681;SDS011;17439;48.092;11.842;2022-12-18T11:43:36;25.23;;;10.23;;
30681;SDS011;17439;48.092;11.842;2022-12-18T11:46:13;29.33;;;9.93;;
30681;SDS011;17439;48.092;11.842;2022-12-18T11:49:03;23.15;;;9.30;;
30681;SDS011;17439;48.092;11.842;2022-12-18T11:51:43;26.27;;;10.27;;
30681;SDS011;17439;48.092;11.842;2022-12-18T11:54:16;24.73;;;9.55;;
30681;SDS011;17439;48.092;11.842;2022-12-18T12:02:33;25.60;;;10.45;;
30681;SDS011;17439;48.092;11.842;2022-12-18T12:15:45;28.20;;;11.32;;
30681;SDS011;17439;48.092;11.842;2022-12-18T12:23:55;29.35;;;9.88;;
30681;SDS011;17439;48.092;11.842;2022-12-18T12:26:38;34.42;;;11.63;;
30681;SDS011;17439;48.092;11.842;2022-12-18T12:29:20;24.13;;;8.65;;
30681;SDS011;17439;48.092;11.842;2022-12-18T12:32:07;23.48;;;9.07;;
30681;SDS011;17439;48.092;11.842;2022-12-18T12:34:55;23.75;;;9.18;;
30681;SDS011;17439;48.092;11.842;2022-12-18T12:40:10;23.88;;;10.35;;
30681;SDS011;17439;48.092;11.842;2022-12-18T12:43:03;24.80;;;9.93;;
30681;SDS011;17439;48.092;11.842;2022-12-18T12:45:40;25.48;;;9.75;;
30681;SDS011;17439;48.092;11.842;2022-12-18T12:48:17;33.25;;;12.48;;
30681;SDS011;17439;48.092;11.842;2022-12-18T12:50:47;26.27;;;10.15;;
30681;SDS011;17439;48.092;11.842;2022-12-18T12:53:21;28.25;;;10.50;;
30681;SDS011;17439;48.092;11.842;2022-12-18T12:55:52;27.53;;;9.43;;
30681;SDS011;17439;48.092;11.842;2022-12-18T13:01:09;24.30;;;9.88;;
30681;SDS011;17439;48.092;11.842;2022-12-18T13:04:44;30.35;;;10.32;;
30681;SDS011;17439;48.092;11.842;2022-12-18T13:09:31;26.70;;;9.93;;
30681;SDS011;17439;48.092;11.842;2022-12-18T13:12:03;26.15;;;10.13;;
30681;SDS011;17439;48.092;11.842;2022-12-18T13:14:37;25.85;;;10.85;;
30681;SDS011;17439;48.092;11.842;2022-12-18T13:17:15;31.33;;;11.80;;
30681;SDS011;17439;48.092;11.842;2022-12-18T13:19:50;37.58;;;13.50;;
30681;SDS011;17439;48.092;11.842;2022-12-18T13:22:34;27.38;;;10.38;;
30681;SDS011;17439;48.092;11.842;2022-12-18T13:25:03;35.22;;;12.65;;
30681;SDS011;17439;48.092;11.842;2022-12-18T13:28:00;30.63;;;11.60;;
30681;SDS011;17439;48.092;11.842;2022-12-18T13:33:42;31.45;;;11.57;;
30681;SDS011;17439;48.092;11.842;2022-12-18T13:43:49;30.08;;;11.70;;
30681;SDS011;17439;48.092;11.842;2022-12-18T13:51:42;33.92;;;14.07;;
30681;SDS011;17439;48.092;11.842;2022-12-18T13:56:44;27.10;;;11.07;;
30681;SDS011;17439;48.092;11.842;2022-12-18T14:04:28;30.88;;;11.02;;
30681;SDS011;17439;48.092;11.842;2022-12-18T14:09:48;35.33;;;12.55;;
30681;SDS011;17439;48.092;11.842;2022-12-18T14:12:28;38.83;;;13.45;;
30681;SDS011;17439;48.092;11.842;2022-12-18T14:14:58;26.63;;;10.35;;
30681;SDS011;17439;48.092;11.842;2022-12-18T14:17:26;38.03;;;12.38;;
30681;SDS011;17439;48.092;11.842;2022-12-18T14:19:53;40.85;;;13.98;;
30681;SDS011;17439;48.092;11.842;2022-12-18T14:22:23;33.97;;;13.57;;
30681;SDS011;17439;48.092;11.842;2022-12-18T14:25:04;31.00;;;10.75;;
30681;SDS011;17439;48.092;11.842;2022-12-18T14:27:47;31.20;;;11.73;;
30681;SDS011;17439;48.092;11.842;2022-12-18T14:33:00;36.40;;;10.75;;
30681;SDS011;17439;48.092;11.842;2022-12-18T14:35:41;25.88;;;9.15;;
30681;SDS011;17439;48.092;11.842;2022-12-18T14:41:33;24.40;;;11.32;;
30681;SDS011;17439;48.092;11.842;2022-12-18T14:43:42;32.45;;;12.48;;
30681;SDS011;17439;48.092;11.842;2022-12-18T14:49:04;30.25;;;10.63;;
30681;SDS011;17439;48.092;11.842;2022-12-18T14:51:52;39.13;;;13.75;;
30681;SDS011;17439;48.092;11.842;2022-12-18T14:54:21;27.27;;;9.18;;
30681;SDS011;17439;48.092;11.842;2022-12-18T14:56:51;27.13;;;9.93;;
30681;SDS011;17439;48.092;11.842;2022-12-18T14:59:22;27.90;;;9.68;;
30681;SDS011;17439;48.092;11.842;2022-12-18T15:02:04;32.28;;;11.60;;
30681;SDS011;17439;48.092;11.842;2022-12-18T15:04:42;28.92;;;10.63;;
30681;SDS011;17439;48.092;11.842;2022-12-18T15:07:14;26.83;;;9.18;;
30681;SDS011;17439;48.092;11.842;2022-12-18T15:15:05;27.08;;;10.32;;
30681;SDS011;17439;48.092;11.842;2022-12-18T15:17:58;25.77;;;8.50;;
30681;SDS011;17439;48.092;11.842;2022-12-18T15:20:27;31.05;;;10.68;;
30681;SDS011;17439;48.092;11.842;2022-12-18T15:22:57;21.58;;;9.25;;
30681;SDS011;17439;48.092;11.842;2022-12-18T15:28:02;27.60;;;11.05;;
30681;SDS011;17439;48.092;11.842;2022-12-18T15:30:30;25.38;;;9.68;;
30681;SDS011;17439;48.092;11.842;2022-12-18T15:35:43;33.35;;;12.68;;
30681;SDS011;17439;48.092;11.842;2022-12-18T15:38:12;24.10;;;8.60;;
30681;SDS011;17439;48.092;11.842;2022-12-18T15:40:39;27.98;;;11.40;;
30681;SDS011;17439;48.092;11.842;2022-12-18T15:43:07;28.80;;;10.93;;
30681;SDS011;17439;48.092;11.842;2022-12-18T15:45:35;23.95;;;9.10;;
30681;SDS011;17439;48.092;11.842;2022-12-18T15:48:01;28.83;;;11.05;;
30681;SDS011;17439;48.092;11.842;2022-12-18T15:50:28;31.45;;;10.88;;
30681;SDS011;17439;48.092;11.842;2022-12-18T15:52:56;28.00;;;10.15;;
30681;SDS011;17439;48.092;11.842;2022-12-18T15:55:23;24.70;;;8.63;;
30681;SDS011;17439;48.092;11.842;2022-12-18T15:57:50;26.75;;;10.00;;
30681;SDS011;17439;48.092;11.842;2022-12-18T16:00:17;35.05;;;12.32;;
30681;SDS011;17439;48.092;11.842;2022-12-18T16:02:44;29.38;;;11.57;;
30681;SDS011;17439;48.092;11.842;2022-12-18T16:05:14;30.80;;;12.20;;
30681;SDS011;17439;48.092;11.842;2022-12-18T16:07:42;34.38;;;11.52;;
30681;SDS011;17439;48.092;11.842;2022-12-18T16:10:10;32.17;;;11.25;;
30681;SDS011;17439;48.092;11.842;2022-12-18T16:12:37;33.20;;;10.73;;
30681;SDS011;17439;48.092;11.842;2022-12-18T16:15:04;30.27;;;11.23;;
30681;SDS011;17439;48.092;11.842;2022-12-18T16:17:32;32.30;;;11.68;;
30681;SDS011;17439;48.092;11.842;2022-12-18T16:19:59;31.50;;;10.17;;
30681;SDS011;17439;48.092;11.842;2022-12-18T16:22:27;29.63;;;10.05;;
30681;SDS011;17439;48.092;11.842;2022-12-18T16:24:55;31.42;;;11.73;;
30681;SDS011;17439;48.092;11.842;2022-12-18T16:27:22;38.53;;;12.43;;
30681;SDS011;17439;48.092;11.842;2022-12-18T16:29:50;35.80;;;12.52;;
30681;SDS011;17439;48.092;11.842;2022-12-18T16:32:17;34.63;;;10.55;;
30681;SDS011;17439;48.092;11.842;2022-12-18T16:34:45;29.48;;;11.05;;
30681;SDS011;17439;48.092;11.842;2022-12-18T16:37:13;36.57;;;11.77;;
30681;SDS011;17439;48.092;11.842;2022-12-18T16:39:40;25.80;;;9.73;;
30681;SDS011;17439;48.092;11.842;2022-12-18T16:44:42;33.78;;;12.18;;
30681;SDS011;17439;48.092;11.842;2022-12-18T16:47:08;35.85;;;14.23;;
30681;SDS011;17439;48.092;11.842;2022-12-18T16:49:40;35.45;;;12.27;;
30681;SDS011;17439;48.092;11.842;2022-12-18T16:52:06;34.38;;;14.18;;
30681;SDS011;17439;48.092;11.842;2022-12-18T16:54:33;35.95;;;12.75;;
30681;SDS011;17439;48.092;11.842;2022-12-18T16:57:00;35.35;;;13.43;;